sensor_id;sensor_type;location;lat;lon;timestamp;P1;durP1;ratioP1;P2;durP2;ratioP2
50815;SDS011;39717;47.324;8.788;2023-05-07T00:00:25;1.63;;;1.37;;
50815;SDS011;39717;47.324;8.788;2023-05-07T00:02:51;1.77;;;1.60;;
50815;SDS011;39717;47.324;8.788;2023-05-07T00:05:18;1.53;;;1.43;;
50815;SDS011;39717;47.324;8.788;2023-05-07T00:07:44;2.40;;;1.20;;
50815;SDS011;39717;47.324;8.788;2023-05-07T00:10:10;2.30;;;1.60;;
50815;SDS011;39717;47.324;8.788;2023-05-07T00:12:37;1.63;;;1.53;;
50815;SDS011;39717;47.324;8.788;2023-05-07T00:15:04;1.40;;;1.30;;
50815;SDS011;39717;47.324;8.788;2023-05-07T00:17:33;1.57;;;1.47;;
50815;SDS011;39717;47.324;8.788;2023-05-07T00:19:59;1.50;;;1.40;;
50815;SDS011;39717;47.324;8.788;2023-05-07T00:22:26;1.70;;;1.60;;
50815;SDS011;39717;47.324;8.788;2023-05-07T00:24:52;2.00;;;1.50;;
50815;SDS011;39717;47.324;8.788;2023-05-07T00:27:18;2.87;;;1.43;;
50815;SDS011;39717;47.324;8.788;2023-05-07T00:29:44;1.70;;;1.60;;
50815;SDS011;39717;47.324;8.788;2023-05-07T00:32:10;1.30;;;1.20;;
50815;SDS011;39717;47.324;8.788;2023-05-07T00:34:37;1.60;;;1.50;;
50815;SDS011;39717;47.324;8.788;2023-05-07T00:37:05;1.50;;;1.33;;
50815;SDS011;39717;47.324;8.788;2023-05-07T00:39:35;1.70;;;1.53;;
50815;SDS011;39717;47.324;8.788;2023-05-07T00:42:01;1.40;;;1.27;;
50815;SDS011;39717;47.324;8.788;2023-05-07T00:44:28;1.63;;;1.50;;
50815;SDS011;39717;47.324;8.788;2023-05-07T00:46:55;1.67;;;1.57;;
50815;SDS011;39717;47.324;8.788;2023-05-07T00:49:21;1.77;;;1.50;;
50815;SDS011;39717;47.324;8.788;2023-05-07T00:51:50;2.00;;;1.80;;
50815;SDS011;39717;47.324;8.788;2023-05-07T00:54:17;1.77;;;1.43;;
50815;SDS011;39717;47.324;8.788;2023-05-07T00:56:44;1.60;;;1.50;;
50815;SDS011;39717;47.324;8.788;2023-05-07T00:59:10;1.53;;;1.43;;
50815;SDS011;39717;47.324;8.788;2023-05-07T01:01:36;1.60;;;1.50;;
50815;SDS011;39717;47.324;8.788;2023-05-07T01:04:03;1.50;;;1.40;;
50815;SDS011;39717;47.324;8.788;2023-05-07T01:06:29;1.90;;;1.70;;
50815;SDS011;39717;47.324;8.788;2023-05-07T01:08:56;1.60;;;1.50;;
50815;SDS011;39717;47.324;8.788;2023-05-07T01:11:22;1.60;;;1.50;;
50815;SDS011;39717;47.324;8.788;2023-05-07T01:13:50;1.30;;;1.20;;
50815;SDS011;39717;47.324;8.788;2023-05-07T01:16:17;1.60;;;1.50;;
50815;SDS011;39717;47.324;8.788;2023-05-07T01:18:43;2.03;;;1.50;;
50815;SDS011;39717;47.324;8.788;2023-05-07T01:21:10;3.17;;;1.53;;
50815;SDS011;39717;47.324;8.788;2023-05-07T01:23:37;2.47;;;1.40;;
50815;SDS011;39717;47.324;8.788;2023-05-07T01:26:05;1.60;;;1.50;;
50815;SDS011;39717;47.324;8.788;2023-05-07T01:28:31;2.90;;;1.80;;
50815;SDS011;39717;47.324;8.788;2023-05-07T01:33:47;1.77;;;1.63;;
50815;SDS011;39717;47.324;8.788;2023-05-07T01:36:15;2.00;;;1.80;;
50815;SDS011;39717;47.324;8.788;2023-05-07T01:38:42;1.50;;;1.40;;
50815;SDS011;39717;47.324;8.788;2023-05-07T01:41:09;1.73;;;1.63;;
50815;SDS011;39717;47.324;8.788;2023-05-07T01:43:35;2.50;;;1.80;;
50815;SDS011;39717;47.324;8.788;2023-05-07T01:46:02;2.00;;;1.80;;
50815;SDS011;39717;47.324;8.788;2023-05-07T01:48:28;2.37;;;1.60;;
50815;SDS011;39717;47.324;8.788;2023-05-07T01:50:55;2.00;;;1.80;;
50815;SDS011;39717;47.324;8.788;2023-05-07T01:53:21;1.67;;;1.57;;
50815;SDS011;39717;47.324;8.788;2023-05-07T01:55:47;2.10;;;1.80;;
50815;SDS011;39717;47.324;8.788;2023-05-07T01:58:13;1.80;;;1.63;;
50815;SDS011;39717;47.324;8.788;2023-05-07T02:00:39;2.20;;;1.90;;
50815;SDS011;39717;47.324;8.788;2023-05-07T02:03:06;2.83;;;1.60;;
50815;SDS011;39717;47.324;8.788;2023-05-07T02:05:32;1.93;;;1.80;;
50815;SDS011;39717;47.324;8.788;2023-05-07T02:07:58;2.07;;;1.80;;
50815;SDS011;39717;47.324;8.788;2023-05-07T02:10:24;3.57;;;2.00;;
50815;SDS011;39717;47.324;8.788;2023-05-07T02:12:50;4.53;;;1.90;;
50815;SDS011;39717;47.324;8.788;2023-05-07T02:15:16;2.10;;;1.83;;
50815;SDS011;39717;47.324;8.788;2023-05-07T02:17:59;2.63;;;1.77;;
50815;SDS011;39717;47.324;8.788;2023-05-07T02:20:25;2.13;;;1.83;;
50815;SDS011;39717;47.324;8.788;2023-05-07T02:22:51;1.50;;;1.40;;
50815;SDS011;39717;47.324;8.788;2023-05-07T02:25:18;1.93;;;1.70;;
50815;SDS011;39717;47.324;8.788;2023-05-07T02:27:44;2.03;;;1.60;;
50815;SDS011;39717;47.324;8.788;2023-05-07T02:30:10;1.77;;;1.67;;
50815;SDS011;39717;47.324;8.788;2023-05-07T02:32:36;1.83;;;1.73;;
50815;SDS011;39717;47.324;8.788;2023-05-07T02:35:02;2.37;;;1.80;;
50815;SDS011;39717;47.324;8.788;2023-05-07T02:37:29;3.17;;;1.57;;
50815;SDS011;39717;47.324;8.788;2023-05-07T02:39:55;2.17;;;1.50;;
50815;SDS011;39717;47.324;8.788;2023-05-07T02:42:21;1.90;;;1.50;;
50815;SDS011;39717;47.324;8.788;2023-05-07T02:44:48;1.77;;;1.67;;
50815;SDS011;39717;47.324;8.788;2023-05-07T02:47:14;3.33;;;1.73;;
50815;SDS011;39717;47.324;8.788;2023-05-07T02:49:41;2.00;;;1.80;;
50815;SDS011;39717;47.324;8.788;2023-05-07T02:52:07;1.70;;;1.60;;
50815;SDS011;39717;47.324;8.788;2023-05-07T02:54:33;2.50;;;1.80;;
50815;SDS011;39717;47.324;8.788;2023-05-07T02:56:59;1.80;;;1.70;;
50815;SDS011;39717;47.324;8.788;2023-05-07T02:59:27;1.57;;;1.47;;
50815;SDS011;39717;47.324;8.788;2023-05-07T03:01:53;2.73;;;1.97;;
50815;SDS011;39717;47.324;8.788;2023-05-07T03:04:19;1.40;;;1.30;;
50815;SDS011;39717;47.324;8.788;2023-05-07T03:06:45;1.97;;;1.57;;
50815;SDS011;39717;47.324;8.788;2023-05-07T03:09:11;1.90;;;1.70;;
50815;SDS011;39717;47.324;8.788;2023-05-07T03:11:38;2.50;;;1.43;;
50815;SDS011;39717;47.324;8.788;2023-05-07T03:14:04;2.13;;;1.40;;
50815;SDS011;39717;47.324;8.788;2023-05-07T03:16:30;3.50;;;1.90;;
50815;SDS011;39717;47.324;8.788;2023-05-07T03:18:56;2.90;;;2.13;;
50815;SDS011;39717;47.324;8.788;2023-05-07T03:21:22;3.30;;;1.70;;
50815;SDS011;39717;47.324;8.788;2023-05-07T03:23:48;2.17;;;1.97;;
50815;SDS011;39717;47.324;8.788;2023-05-07T03:26:15;1.83;;;1.73;;
50815;SDS011;39717;47.324;8.788;2023-05-07T03:28:41;1.60;;;1.50;;
50815;SDS011;39717;47.324;8.788;2023-05-07T03:31:07;1.97;;;1.60;;
50815;SDS011;39717;47.324;8.788;2023-05-07T03:33:33;1.67;;;1.57;;
50815;SDS011;39717;47.324;8.788;2023-05-07T03:36:00;3.93;;;1.60;;
50815;SDS011;39717;47.324;8.788;2023-05-07T03:38:26;1.57;;;1.47;;
50815;SDS011;39717;47.324;8.788;2023-05-07T03:40:52;2.13;;;1.57;;
50815;SDS011;39717;47.324;8.788;2023-05-07T03:43:19;1.93;;;1.83;;
50815;SDS011;39717;47.324;8.788;2023-05-07T03:45:45;3.53;;;1.80;;
50815;SDS011;39717;47.324;8.788;2023-05-07T03:48:11;1.70;;;1.53;;
50815;SDS011;39717;47.324;8.788;2023-05-07T03:50:37;1.53;;;1.40;;
50815;SDS011;39717;47.324;8.788;2023-05-07T03:53:03;2.43;;;1.90;;
50815;SDS011;39717;47.324;8.788;2023-05-07T03:55:30;1.80;;;1.60;;
50815;SDS011;39717;47.324;8.788;2023-05-07T03:57:56;1.77;;;1.67;;
50815;SDS011;39717;47.324;8.788;2023-05-07T04:00:22;2.10;;;1.90;;
50815;SDS011;39717;47.324;8.788;2023-05-07T04:02:48;2.17;;;1.63;;
50815;SDS011;39717;47.324;8.788;2023-05-07T04:05:14;1.97;;;1.70;;
50815;SDS011;39717;47.324;8.788;2023-05-07T04:07:41;2.33;;;1.80;;
50815;SDS011;39717;47.324;8.788;2023-05-07T04:10:07;1.50;;;1.33;;
50815;SDS011;39717;47.324;8.788;2023-05-07T04:12:33;1.93;;;1.63;;
50815;SDS011;39717;47.324;8.788;2023-05-07T04:14:59;1.80;;;1.70;;
50815;SDS011;39717;47.324;8.788;2023-05-07T04:17:25;2.00;;;1.80;;
50815;SDS011;39717;47.324;8.788;2023-05-07T04:19:51;1.87;;;1.77;;
50815;SDS011;39717;47.324;8.788;2023-05-07T04:22:17;1.90;;;1.77;;
50815;SDS011;39717;47.324;8.788;2023-05-07T04:24:44;2.63;;;1.90;;
50815;SDS011;39717;47.324;8.788;2023-05-07T04:27:10;2.03;;;1.87;;
50815;SDS011;39717;47.324;8.788;2023-05-07T04:29:37;1.70;;;1.60;;
50815;SDS011;39717;47.324;8.788;2023-05-07T04:32:08;2.10;;;1.90;;
50815;SDS011;39717;47.324;8.788;2023-05-07T04:34:34;3.93;;;1.90;;
50815;SDS011;39717;47.324;8.788;2023-05-07T04:37:00;2.07;;;1.87;;
50815;SDS011;39717;47.324;8.788;2023-05-07T04:39:26;2.13;;;1.80;;
50815;SDS011;39717;47.324;8.788;2023-05-07T04:41:53;2.40;;;1.97;;
50815;SDS011;39717;47.324;8.788;2023-05-07T04:44:19;1.73;;;1.60;;
50815;SDS011;39717;47.324;8.788;2023-05-07T04:46:45;2.07;;;1.90;;
50815;SDS011;39717;47.324;8.788;2023-05-07T04:49:11;1.50;;;1.40;;
50815;SDS011;39717;47.324;8.788;2023-05-07T04:51:37;1.90;;;1.70;;
50815;SDS011;39717;47.324;8.788;2023-05-07T04:54:04;1.30;;;1.27;;
50815;SDS011;39717;47.324;8.788;2023-05-07T04:56:30;1.87;;;1.67;;
50815;SDS011;39717;47.324;8.788;2023-05-07T04:58:56;1.90;;;1.80;;
50815;SDS011;39717;47.324;8.788;2023-05-07T05:01:22;1.70;;;1.60;;
50815;SDS011;39717;47.324;8.788;2023-05-07T05:03:48;1.67;;;1.57;;
50815;SDS011;39717;47.324;8.788;2023-05-07T05:06:14;3.27;;;1.60;;
50815;SDS011;39717;47.324;8.788;2023-05-07T05:08:41;2.80;;;1.77;;
50815;SDS011;39717;47.324;8.788;2023-05-07T05:11:07;1.83;;;1.47;;
50815;SDS011;39717;47.324;8.788;2023-05-07T05:13:33;1.70;;;1.60;;
50815;SDS011;39717;47.324;8.788;2023-05-07T05:15:59;1.40;;;1.30;;
50815;SDS011;39717;47.324;8.788;2023-05-07T05:18:25;1.90;;;1.40;;
50815;SDS011;39717;47.324;8.788;2023-05-07T05:20:53;1.90;;;1.20;;
50815;SDS011;39717;47.324;8.788;2023-05-07T05:23:19;2.67;;;1.40;;
50815;SDS011;39717;47.324;8.788;2023-05-07T05:25:46;1.57;;;1.47;;
50815;SDS011;39717;47.324;8.788;2023-05-07T05:28:12;1.60;;;1.50;;
50815;SDS011;39717;47.324;8.788;2023-05-07T05:30:39;1.97;;;1.57;;
50815;SDS011;39717;47.324;8.788;2023-05-07T05:33:05;1.70;;;1.60;;
50815;SDS011;39717;47.324;8.788;2023-05-07T05:35:31;1.27;;;1.23;;
50815;SDS011;39717;47.324;8.788;2023-05-07T05:37:58;1.67;;;1.47;;
50815;SDS011;39717;47.324;8.788;2023-05-07T05:40:24;1.40;;;1.30;;
50815;SDS011;39717;47.324;8.788;2023-05-07T05:42:50;2.17;;;1.60;;
50815;SDS011;39717;47.324;8.788;2023-05-07T05:45:16;1.97;;;1.60;;
50815;SDS011;39717;47.324;8.788;2023-05-07T05:47:42;2.93;;;1.60;;
50815;SDS011;39717;47.324;8.788;2023-05-07T05:50:08;1.60;;;1.50;;
50815;SDS011;39717;47.324;8.788;2023-05-07T05:52:35;2.17;;;1.40;;
50815;SDS011;39717;47.324;8.788;2023-05-07T05:55:01;1.67;;;1.50;;
50815;SDS011;39717;47.324;8.788;2023-05-07T05:57:27;1.77;;;1.57;;
50815;SDS011;39717;47.324;8.788;2023-05-07T05:59:53;1.10;;;1.03;;
50815;SDS011;39717;47.324;8.788;2023-05-07T06:02:20;2.47;;;1.30;;
50815;SDS011;39717;47.324;8.788;2023-05-07T06:04:46;1.97;;;1.40;;
50815;SDS011;39717;47.324;8.788;2023-05-07T06:07:12;2.60;;;1.20;;
50815;SDS011;39717;47.324;8.788;2023-05-07T06:09:38;1.60;;;1.50;;
50815;SDS011;39717;47.324;8.788;2023-05-07T06:12:04;1.07;;;1.07;;
50815;SDS011;39717;47.324;8.788;2023-05-07T06:14:30;1.30;;;1.20;;
50815;SDS011;39717;47.324;8.788;2023-05-07T06:16:57;0.93;;;0.90;;
50815;SDS011;39717;47.324;8.788;2023-05-07T06:19:23;1.30;;;1.20;;
50815;SDS011;39717;47.324;8.788;2023-05-07T06:21:51;1.10;;;0.97;;
50815;SDS011;39717;47.324;8.788;2023-05-07T06:24:17;2.73;;;1.10;;
50815;SDS011;39717;47.324;8.788;2023-05-07T06:26:43;1.00;;;1.00;;
50815;SDS011;39717;47.324;8.788;2023-05-07T06:29:10;3.47;;;1.07;;
50815;SDS011;39717;47.324;8.788;2023-05-07T06:31:36;1.03;;;1.00;;
50815;SDS011;39717;47.324;8.788;2023-05-07T06:34:02;1.63;;;1.00;;
50815;SDS011;39717;47.324;8.788;2023-05-07T06:36:28;2.80;;;1.17;;
50815;SDS011;39717;47.324;8.788;2023-05-07T06:38:54;1.70;;;0.90;;
50815;SDS011;39717;47.324;8.788;2023-05-07T06:41:21;1.13;;;1.03;;
50815;SDS011;39717;47.324;8.788;2023-05-07T06:43:47;1.33;;;1.10;;
50815;SDS011;39717;47.324;8.788;2023-05-07T06:46:13;1.03;;;1.00;;
50815;SDS011;39717;47.324;8.788;2023-05-07T06:48:41;1.70;;;1.40;;
50815;SDS011;39717;47.324;8.788;2023-05-07T06:51:07;0.87;;;0.87;;
50815;SDS011;39717;47.324;8.788;2023-05-07T06:53:33;1.70;;;1.20;;
50815;SDS011;39717;47.324;8.788;2023-05-07T06:56:00;1.10;;;1.00;;
50815;SDS011;39717;47.324;8.788;2023-05-07T06:58:26;0.90;;;0.90;;
50815;SDS011;39717;47.324;8.788;2023-05-07T07:00:53;1.30;;;1.20;;
50815;SDS011;39717;47.324;8.788;2023-05-07T07:03:19;0.93;;;0.93;;
50815;SDS011;39717;47.324;8.788;2023-05-07T07:05:45;1.20;;;1.10;;
50815;SDS011;39717;47.324;8.788;2023-05-07T07:08:11;1.30;;;1.20;;
50815;SDS011;39717;47.324;8.788;2023-05-07T07:10:37;2.10;;;1.10;;
50815;SDS011;39717;47.324;8.788;2023-05-07T07:13:03;0.90;;;0.90;;
50815;SDS011;39717;47.324;8.788;2023-05-07T07:15:30;1.63;;;1.00;;
50815;SDS011;39717;47.324;8.788;2023-05-07T07:17:56;1.13;;;1.03;;
50815;SDS011;39717;47.324;8.788;2023-05-07T07:20:22;1.23;;;1.13;;
50815;SDS011;39717;47.324;8.788;2023-05-07T07:22:48;1.30;;;1.20;;
50815;SDS011;39717;47.324;8.788;2023-05-07T07:25:14;1.27;;;1.17;;
50815;SDS011;39717;47.324;8.788;2023-05-07T07:27:40;1.70;;;1.37;;
50815;SDS011;39717;47.324;8.788;2023-05-07T07:30:07;1.83;;;1.03;;
50815;SDS011;39717;47.324;8.788;2023-05-07T07:32:33;1.83;;;1.67;;
50815;SDS011;39717;47.324;8.788;2023-05-07T07:34:59;1.30;;;1.20;;
50815;SDS011;39717;47.324;8.788;2023-05-07T07:37:26;1.73;;;1.63;;
50815;SDS011;39717;47.324;8.788;2023-05-07T07:39:53;1.83;;;1.57;;
50815;SDS011;39717;47.324;8.788;2023-05-07T07:42:19;2.20;;;2.00;;
50815;SDS011;39717;47.324;8.788;2023-05-07T07:44:45;2.57;;;1.63;;
50815;SDS011;39717;47.324;8.788;2023-05-07T07:47:11;1.50;;;1.40;;
50815;SDS011;39717;47.324;8.788;2023-05-07T07:49:37;1.80;;;1.67;;
50815;SDS011;39717;47.324;8.788;2023-05-07T07:52:03;2.10;;;1.60;;
50815;SDS011;39717;47.324;8.788;2023-05-07T07:54:30;1.80;;;1.70;;
50815;SDS011;39717;47.324;8.788;2023-05-07T07:56:56;1.93;;;1.73;;
50815;SDS011;39717;47.324;8.788;2023-05-07T07:59:22;1.73;;;1.63;;
50815;SDS011;39717;47.324;8.788;2023-05-07T08:01:48;2.10;;;1.90;;
50815;SDS011;39717;47.324;8.788;2023-05-07T08:04:17;1.67;;;1.57;;
50815;SDS011;39717;47.324;8.788;2023-05-07T08:06:43;2.00;;;1.70;;
50815;SDS011;39717;47.324;8.788;2023-05-07T08:09:09;1.80;;;1.70;;
50815;SDS011;39717;47.324;8.788;2023-05-07T08:11:35;1.50;;;1.40;;
50815;SDS011;39717;47.324;8.788;2023-05-07T08:14:01;4.20;;;1.83;;
50815;SDS011;39717;47.324;8.788;2023-05-07T08:16:28;1.63;;;1.47;;
50815;SDS011;39717;47.324;8.788;2023-05-07T08:18:55;3.03;;;1.80;;
50815;SDS011;39717;47.324;8.788;2023-05-07T08:21:21;1.80;;;1.70;;
50815;SDS011;39717;47.324;8.788;2023-05-07T08:23:47;1.57;;;1.47;;
50815;SDS011;39717;47.324;8.788;2023-05-07T08:26:13;1.70;;;1.60;;
50815;SDS011;39717;47.324;8.788;2023-05-07T08:28:40;1.87;;;1.77;;
50815;SDS011;39717;47.324;8.788;2023-05-07T08:31:06;2.20;;;1.87;;
50815;SDS011;39717;47.324;8.788;2023-05-07T08:33:32;2.37;;;1.90;;
50815;SDS011;39717;47.324;8.788;2023-05-07T08:35:58;2.90;;;1.77;;
50815;SDS011;39717;47.324;8.788;2023-05-07T08:38:24;2.00;;;1.90;;
50815;SDS011;39717;47.324;8.788;2023-05-07T08:40:50;1.90;;;1.80;;
50815;SDS011;39717;47.324;8.788;2023-05-07T08:43:17;3.57;;;2.13;;
50815;SDS011;39717;47.324;8.788;2023-05-07T08:45:44;3.63;;;1.70;;
50815;SDS011;39717;47.324;8.788;2023-05-07T08:48:15;2.37;;;2.10;;
50815;SDS011;39717;47.324;8.788;2023-05-07T08:50:41;1.87;;;1.50;;
50815;SDS011;39717;47.324;8.788;2023-05-07T08:53:07;1.97;;;1.87;;
50815;SDS011;39717;47.324;8.788;2023-05-07T08:55:34;1.67;;;1.57;;
50815;SDS011;39717;47.324;8.788;2023-05-07T08:58:01;1.87;;;1.40;;
50815;SDS011;39717;47.324;8.788;2023-05-07T09:00:27;1.93;;;1.70;;
50815;SDS011;39717;47.324;8.788;2023-05-07T09:02:53;1.77;;;1.60;;
50815;SDS011;39717;47.324;8.788;2023-05-07T09:05:20;1.73;;;1.63;;
50815;SDS011;39717;47.324;8.788;2023-05-07T09:07:46;1.60;;;1.50;;
50815;SDS011;39717;47.324;8.788;2023-05-07T09:10:12;3.23;;;1.70;;
50815;SDS011;39717;47.324;8.788;2023-05-07T09:12:39;3.53;;;1.53;;
50815;SDS011;39717;47.324;8.788;2023-05-07T09:15:06;4.50;;;1.63;;
50815;SDS011;39717;47.324;8.788;2023-05-07T09:17:32;1.60;;;1.50;;
50815;SDS011;39717;47.324;8.788;2023-05-07T09:20:02;2.03;;;1.57;;
50815;SDS011;39717;47.324;8.788;2023-05-07T09:22:33;1.57;;;1.47;;
50815;SDS011;39717;47.324;8.788;2023-05-07T09:24:59;2.43;;;1.50;;
50815;SDS011;39717;47.324;8.788;2023-05-07T09:27:26;1.40;;;1.30;;
50815;SDS011;39717;47.324;8.788;2023-05-07T09:29:52;1.43;;;1.33;;
50815;SDS011;39717;47.324;8.788;2023-05-07T09:32:18;3.27;;;1.70;;
50815;SDS011;39717;47.324;8.788;2023-05-07T09:34:44;3.23;;;1.47;;
50815;SDS011;39717;47.324;8.788;2023-05-07T09:37:12;2.50;;;1.70;;
50815;SDS011;39717;47.324;8.788;2023-05-07T09:39:43;2.13;;;1.73;;
50815;SDS011;39717;47.324;8.788;2023-05-07T09:42:09;1.50;;;1.40;;
50815;SDS011;39717;47.324;8.788;2023-05-07T09:44:45;1.30;;;1.20;;
50815;SDS011;39717;47.324;8.788;2023-05-07T09:47:11;2.07;;;1.70;;
50815;SDS011;39717;47.324;8.788;2023-05-07T09:49:38;1.50;;;1.40;;
50815;SDS011;39717;47.324;8.788;2023-05-07T09:52:07;2.23;;;1.80;;
50815;SDS011;39717;47.324;8.788;2023-05-07T09:54:37;2.10;;;1.40;;
50815;SDS011;39717;47.324;8.788;2023-05-07T09:57:04;1.60;;;1.50;;
50815;SDS011;39717;47.324;8.788;2023-05-07T09:59:33;1.40;;;1.30;;
50815;SDS011;39717;47.324;8.788;2023-05-07T10:02:00;1.53;;;1.30;;
50815;SDS011;39717;47.324;8.788;2023-05-07T10:04:27;1.57;;;1.47;;
50815;SDS011;39717;47.324;8.788;2023-05-07T10:06:54;1.50;;;1.40;;
50815;SDS011;39717;47.324;8.788;2023-05-07T10:09:21;1.43;;;1.33;;
50815;SDS011;39717;47.324;8.788;2023-05-07T10:11:48;2.43;;;1.30;;
50815;SDS011;39717;47.324;8.788;2023-05-07T10:14:15;1.47;;;1.37;;
50815;SDS011;39717;47.324;8.788;2023-05-07T10:16:41;2.20;;;1.37;;
50815;SDS011;39717;47.324;8.788;2023-05-07T10:19:08;1.60;;;1.50;;
50815;SDS011;39717;47.324;8.788;2023-05-07T10:21:37;2.10;;;1.33;;
50815;SDS011;39717;47.324;8.788;2023-05-07T10:24:07;1.30;;;1.20;;
50815;SDS011;39717;47.324;8.788;2023-05-07T10:26:43;2.30;;;1.40;;
50815;SDS011;39717;47.324;8.788;2023-05-07T10:29:32;1.17;;;1.17;;
50815;SDS011;39717;47.324;8.788;2023-05-07T10:34:42;1.10;;;1.10;;
50815;SDS011;39717;47.324;8.788;2023-05-07T10:37:09;1.63;;;1.30;;
50815;SDS011;39717;47.324;8.788;2023-05-07T10:39:36;1.63;;;1.50;;
50815;SDS011;39717;47.324;8.788;2023-05-07T10:42:12;1.67;;;1.30;;
50815;SDS011;39717;47.324;8.788;2023-05-07T10:44:39;1.30;;;1.20;;
50815;SDS011;39717;47.324;8.788;2023-05-07T10:49:34;1.73;;;1.27;;
50815;SDS011;39717;47.324;8.788;2023-05-07T10:52:14;1.20;;;1.10;;
50815;SDS011;39717;47.324;8.788;2023-05-07T10:54:41;1.73;;;1.37;;
50815;SDS011;39717;47.324;8.788;2023-05-07T10:59:54;1.63;;;1.47;;
50815;SDS011;39717;47.324;8.788;2023-05-07T11:02:20;1.10;;;1.10;;
50815;SDS011;39717;47.324;8.788;2023-05-07T11:05:01;1.57;;;1.40;;
50815;SDS011;39717;47.324;8.788;2023-05-07T11:07:32;1.20;;;1.20;;
50815;SDS011;39717;47.324;8.788;2023-05-07T11:09:59;1.73;;;1.47;;
50815;SDS011;39717;47.324;8.788;2023-05-07T11:15:05;1.57;;;1.47;;
50815;SDS011;39717;47.324;8.788;2023-05-07T11:17:32;1.70;;;1.37;;
50815;SDS011;39717;47.324;8.788;2023-05-07T11:20:00;1.50;;;1.40;;
50815;SDS011;39717;47.324;8.788;2023-05-07T11:25:01;1.70;;;1.40;;
50815;SDS011;39717;47.324;8.788;2023-05-07T11:27:27;1.40;;;1.30;;
50815;SDS011;39717;47.324;8.788;2023-05-07T11:29:54;1.40;;;1.23;;
50815;SDS011;39717;47.324;8.788;2023-05-07T11:32:24;1.13;;;1.13;;
50815;SDS011;39717;47.324;8.788;2023-05-07T11:34:54;1.20;;;1.10;;
50815;SDS011;39717;47.324;8.788;2023-05-07T11:37:21;1.23;;;1.00;;
50815;SDS011;39717;47.324;8.788;2023-05-07T11:39:47;1.33;;;1.20;;
50815;SDS011;39717;47.324;8.788;2023-05-07T11:44:55;1.47;;;1.37;;
50815;SDS011;39717;47.324;8.788;2023-05-07T11:47:21;1.37;;;1.20;;
50815;SDS011;39717;47.324;8.788;2023-05-07T11:49:52;2.30;;;1.37;;
50815;SDS011;39717;47.324;8.788;2023-05-07T11:52:19;1.77;;;1.40;;
50815;SDS011;39717;47.324;8.788;2023-05-07T11:54:52;1.40;;;1.30;;
50815;SDS011;39717;47.324;8.788;2023-05-07T11:57:18;1.20;;;1.10;;
50815;SDS011;39717;47.324;8.788;2023-05-07T11:59:45;1.60;;;1.50;;
50815;SDS011;39717;47.324;8.788;2023-05-07T12:02:14;1.63;;;1.20;;
50815;SDS011;39717;47.324;8.788;2023-05-07T12:04:40;3.27;;;1.50;;
50815;SDS011;39717;47.324;8.788;2023-05-07T12:07:11;1.43;;;1.00;;
50815;SDS011;39717;47.324;8.788;2023-05-07T12:09:39;1.37;;;1.27;;
50815;SDS011;39717;47.324;8.788;2023-05-07T12:12:05;1.10;;;1.10;;
50815;SDS011;39717;47.324;8.788;2023-05-07T12:14:31;1.30;;;1.20;;
50815;SDS011;39717;47.324;8.788;2023-05-07T12:17:00;1.40;;;1.30;;
50815;SDS011;39717;47.324;8.788;2023-05-07T12:19:30;1.37;;;1.27;;
50815;SDS011;39717;47.324;8.788;2023-05-07T12:21:57;2.10;;;1.57;;
50815;SDS011;39717;47.324;8.788;2023-05-07T12:24:24;1.60;;;1.50;;
50815;SDS011;39717;47.324;8.788;2023-05-07T12:26:50;2.50;;;1.47;;
50815;SDS011;39717;47.324;8.788;2023-05-07T12:29:16;1.53;;;1.43;;
50815;SDS011;39717;47.324;8.788;2023-05-07T12:31:42;3.10;;;1.57;;
50815;SDS011;39717;47.324;8.788;2023-05-07T12:34:10;1.50;;;1.40;;
50815;SDS011;39717;47.324;8.788;2023-05-07T12:36:37;1.80;;;1.70;;
50815;SDS011;39717;47.324;8.788;2023-05-07T12:39:05;1.30;;;1.20;;
50815;SDS011;39717;47.324;8.788;2023-05-07T12:41:35;2.07;;;1.80;;
50815;SDS011;39717;47.324;8.788;2023-05-07T12:44:03;2.27;;;2.03;;
50815;SDS011;39717;47.324;8.788;2023-05-07T12:46:30;1.97;;;1.80;;
50815;SDS011;39717;47.324;8.788;2023-05-07T12:48:56;2.00;;;1.80;;
50815;SDS011;39717;47.324;8.788;2023-05-07T12:51:23;1.97;;;1.83;;
50815;SDS011;39717;47.324;8.788;2023-05-07T12:53:49;1.97;;;1.87;;
50815;SDS011;39717;47.324;8.788;2023-05-07T12:56:15;2.17;;;1.80;;
50815;SDS011;39717;47.324;8.788;2023-05-07T12:58:42;2.20;;;2.00;;
50815;SDS011;39717;47.324;8.788;2023-05-07T13:01:08;1.90;;;1.80;;
50815;SDS011;39717;47.324;8.788;2023-05-07T13:03:35;1.90;;;1.80;;
50815;SDS011;39717;47.324;8.788;2023-05-07T13:06:06;2.53;;;2.33;;
50815;SDS011;39717;47.324;8.788;2023-05-07T13:08:36;2.73;;;2.20;;
50815;SDS011;39717;47.324;8.788;2023-05-07T13:11:06;2.47;;;2.27;;
50815;SDS011;39717;47.324;8.788;2023-05-07T13:13:34;2.57;;;2.30;;
50815;SDS011;39717;47.324;8.788;2023-05-07T13:16:01;2.47;;;2.27;;
50815;SDS011;39717;47.324;8.788;2023-05-07T13:18:28;2.43;;;2.20;;
50815;SDS011;39717;47.324;8.788;2023-05-07T13:20:55;2.60;;;2.17;;
50815;SDS011;39717;47.324;8.788;2023-05-07T13:23:21;3.50;;;2.00;;
50815;SDS011;39717;47.324;8.788;2023-05-07T13:25:47;2.73;;;2.50;;
50815;SDS011;39717;47.324;8.788;2023-05-07T13:28:14;2.37;;;2.17;;
50815;SDS011;39717;47.324;8.788;2023-05-07T13:30:40;2.50;;;2.30;;
50815;SDS011;39717;47.324;8.788;2023-05-07T13:33:07;2.90;;;2.50;;
50815;SDS011;39717;47.324;8.788;2023-05-07T13:35:34;2.87;;;2.63;;
50815;SDS011;39717;47.324;8.788;2023-05-07T13:38:00;2.20;;;2.00;;
50815;SDS011;39717;47.324;8.788;2023-05-07T13:40:26;3.10;;;2.30;;
50815;SDS011;39717;47.324;8.788;2023-05-07T13:42:53;2.77;;;2.33;;
50815;SDS011;39717;47.324;8.788;2023-05-07T13:45:19;3.27;;;2.30;;
50815;SDS011;39717;47.324;8.788;2023-05-07T13:47:46;2.47;;;2.10;;
50815;SDS011;39717;47.324;8.788;2023-05-07T13:50:14;3.97;;;2.10;;
50815;SDS011;39717;47.324;8.788;2023-05-07T13:52:44;3.57;;;2.10;;
50815;SDS011;39717;47.324;8.788;2023-05-07T13:55:16;2.47;;;2.27;;
50815;SDS011;39717;47.324;8.788;2023-05-07T13:57:43;2.93;;;2.63;;
50815;SDS011;39717;47.324;8.788;2023-05-07T14:00:10;2.50;;;2.30;;
50815;SDS011;39717;47.324;8.788;2023-05-07T14:02:36;4.17;;;2.30;;
50815;SDS011;39717;47.324;8.788;2023-05-07T14:05:02;2.77;;;2.57;;
50815;SDS011;39717;47.324;8.788;2023-05-07T14:07:29;2.63;;;2.00;;
50815;SDS011;39717;47.324;8.788;2023-05-07T14:09:56;2.30;;;2.13;;
50815;SDS011;39717;47.324;8.788;2023-05-07T14:12:22;2.33;;;1.90;;
50815;SDS011;39717;47.324;8.788;2023-05-07T14:14:48;2.50;;;2.30;;
50815;SDS011;39717;47.324;8.788;2023-05-07T14:17:18;3.17;;;2.43;;
50815;SDS011;39717;47.324;8.788;2023-05-07T14:19:45;3.57;;;2.87;;
50815;SDS011;39717;47.324;8.788;2023-05-07T14:22:13;2.80;;;2.47;;
50815;SDS011;39717;47.324;8.788;2023-05-07T14:24:40;3.23;;;2.93;;
50815;SDS011;39717;47.324;8.788;2023-05-07T14:27:06;4.10;;;2.80;;
50815;SDS011;39717;47.324;8.788;2023-05-07T14:29:33;2.37;;;2.10;;
50815;SDS011;39717;47.324;8.788;2023-05-07T14:32:00;2.33;;;2.13;;
50815;SDS011;39717;47.324;8.788;2023-05-07T14:34:28;2.80;;;2.40;;
50815;SDS011;39717;47.324;8.788;2023-05-07T14:36:54;3.03;;;2.67;;
50815;SDS011;39717;47.324;8.788;2023-05-07T14:39:21;3.10;;;2.17;;
50815;SDS011;39717;47.324;8.788;2023-05-07T14:41:47;2.23;;;2.03;;
50815;SDS011;39717;47.324;8.788;2023-05-07T14:44:13;2.40;;;2.20;;
50815;SDS011;39717;47.324;8.788;2023-05-07T14:46:40;1.90;;;1.80;;
50815;SDS011;39717;47.324;8.788;2023-05-07T14:49:06;1.97;;;1.70;;
50815;SDS011;39717;47.324;8.788;2023-05-07T14:51:41;2.03;;;1.90;;
50815;SDS011;39717;47.324;8.788;2023-05-07T14:54:07;2.40;;;2.00;;
50815;SDS011;39717;47.324;8.788;2023-05-07T14:56:34;1.90;;;1.80;;
50815;SDS011;39717;47.324;8.788;2023-05-07T14:59:01;1.97;;;1.77;;
50815;SDS011;39717;47.324;8.788;2023-05-07T15:01:27;1.80;;;1.63;;
50815;SDS011;39717;47.324;8.788;2023-05-07T15:03:54;1.83;;;1.73;;